Time;durP1;ratioP1;P1;durP2;ratioP2;P2;SDS_P1;SDS_P2;PMS_P1;PMS_P2;Temp;Humidity;BMP_temperature;BMP_pressure;BME280_temperature;BME280_humidity;BME280_pressure;Samples;Min_cycle;Max_cycle;Signal;HPM_P1;HPM_P2
2022/08/08 00:01:27;;;;;;;0.43;0.43;;;16.30;99.90;;;;;;5042701;28;20098;-67
2022/08/08 00:04:22;;;;;;;0.75;0.55;;;16.20;99.90;;;;;;5047937;28;20108;-67
2022/08/08 00:06:56;;;;;;;0.10;0.10;;;16.30;99.90;;;;;;5045985;28;20045;-67
2022/08/08 00:09:38;;;;;;;0.22;0.22;;;16.30;99.90;;;;;;5043436;28;20044;-67
2022/08/08 00:12:08;;;;;;;0.10;0.10;;;16.30;99.90;;;;;;5042090;28;20049;-67
2022/08/08 00:15:00;;;;;;;0.00;0.00;;;16.30;99.90;;;;;;5036592;28;20052;-67
2022/08/08 00:17:50;;;;;;;0.10;0.10;;;16.30;99.90;;;;;;5035245;28;20078;-67
2022/08/08 00:20:29;;;;;;;0.20;0.20;;;16.30;99.90;;;;;;5046455;28;20041;-67
2022/08/08 00:23:01;;;;;;;0.00;0.00;;;16.30;99.90;;;;;;5039450;28;20098;-67
2022/08/08 00:25:36;;;;;;;1.23;1.13;;;16.20;99.90;;;;;;5037305;28;20041;-67
2022/08/08 00:28:06;;;;;;;0.85;0.68;;;16.20;99.90;;;;;;5057438;28;20037;-67
2022/08/08 00:30:36;;;;;;;0.10;0.10;;;16.20;99.90;;;;;;5047586;28;20817;-67
2022/08/08 00:33:11;;;;;;;0.88;0.88;;;16.20;99.90;;;;;;5046737;28;20057;-66
2022/08/08 00:36:02;;;;;;;0.10;0.10;;;16.20;99.90;;;;;;5036638;28;20048;-67
2022/08/08 00:38:34;;;;;;;0.98;0.80;;;16.20;99.90;;;;;;5040119;28;20080;-67
2022/08/08 00:41:44;;;;;;;0.20;0.20;;;16.20;99.90;;;;;;5040435;28;20135;-67
2022/08/08 00:44:40;;;;;;;0.08;0.08;;;16.10;99.90;;;;;;5035823;28;20029;-67
2022/08/08 00:47:24;;;;;;;0.20;0.20;;;16.10;99.90;;;;;;5034181;28;20091;-67
2022/08/08 00:50:11;;;;;;;0.05;0.05;;;16.20;99.90;;;;;;5039445;28;20053;-67
2022/08/08 00:52:59;;;;;;;0.15;0.15;;;16.20;99.90;;;;;;5046349;28;20064;-67
2022/08/08 00:55:43;;;;;;;0.30;0.30;;;16.10;99.90;;;;;;5056358;28;20060;-67
2022/08/08 00:58:21;;;;;;;0.22;0.22;;;16.10;99.90;;;;;;5036085;28;20052;-67
2022/08/08 01:01:17;;;;;;;0.10;0.10;;;16.10;99.90;;;;;;5044352;28;20492;-67
2022/08/08 01:04:13;;;;;;;0.75;0.75;;;16.00;99.90;;;;;;5038412;28;20127;-67
2022/08/08 01:07:11;;;;;;;0.70;0.30;;;16.10;99.90;;;;;;5035575;28;20412;-67
2022/08/08 01:10:08;;;;;;;0.00;0.00;;;16.00;99.90;;;;;;5034951;28;20051;-67
2022/08/08 01:12:58;;;;;;;1.85;0.65;;;16.00;99.90;;;;;;5046251;28;20052;-67
2022/08/08 01:15:29;;;;;;;0.10;0.10;;;16.00;99.90;;;;;;5039128;28;20086;-67
2022/08/08 01:18:25;;;;;;;0.10;0.10;;;15.90;99.90;;;;;;5039264;28;20059;-67
2022/08/08 01:21:19;;;;;;;0.00;0.00;;;15.90;99.90;;;;;;5042382;28;20115;-67
2022/08/08 01:23:54;;;;;;;0.32;0.32;;;15.90;99.90;;;;;;5043781;28;20492;-67
2022/08/08 01:26:28;;;;;;;0.20;0.20;;;15.90;99.90;;;;;;5031135;28;20041;-67
2022/08/08 01:29:19;;;;;;;0.10;0.10;;;15.90;99.90;;;;;;5040980;28;20075;-67
2022/08/08 01:32:22;;;;;;;0.25;0.25;;;15.80;99.90;;;;;;5045847;28;20039;-67
2022/08/08 01:35:25;;;;;;;0.05;0.05;;;15.80;99.90;;;;;;5034133;28;20038;-67
2022/08/08 01:38:17;;;;;;;0.30;0.30;;;15.80;99.90;;;;;;5021773;28;20054;-67
2022/08/08 01:40:53;;;;;;;0.20;0.20;;;15.80;99.90;;;;;;5039958;28;20056;-67
2022/08/08 01:43:44;;;;;;;0.35;0.35;;;15.80;99.90;;;;;;5042315;28;20722;-67
2022/08/08 01:46:29;;;;;;;0.00;0.00;;;15.70;99.90;;;;;;5027963;28;20075;-67
2022/08/08 01:49:18;;;;;;;0.20;0.20;;;15.70;99.90;;;;;;5035723;28;20166;-66
2022/08/08 01:52:18;;;;;;;0.65;0.52;;;15.70;99.90;;;;;;5045287;28;20052;-67
2022/08/08 01:55:05;;;;;;;0.15;0.15;;;15.70;99.90;;;;;;5036066;28;20049;-67
2022/08/08 01:57:59;;;;;;;0.85;0.45;;;15.80;99.90;;;;;;5029348;28;20081;-67
2022/08/08 02:00:42;;;;;;;4.80;0.43;;;15.80;99.90;;;;;;5046834;28;20076;-67
2022/08/08 02:03:32;;;;;;;0.20;0.20;;;15.70;99.90;;;;;;5042612;28;20044;-67
2022/08/08 02:06:26;;;;;;;0.10;0.10;;;15.70;99.90;;;;;;5037041;28;20250;-67
2022/08/08 02:08:55;;;;;;;0.25;0.25;;;15.80;99.90;;;;;;5037975;28;20127;-67
2022/08/08 02:11:42;;;;;;;1.25;0.98;;;15.80;99.90;;;;;;5043757;28;20053;-67
2022/08/08 02:14:36;;;;;;;0.52;0.52;;;15.90;99.90;;;;;;5036332;28;20045;-67
2022/08/08 02:17:28;;;;;;;0.00;0.00;;;15.90;99.90;;;;;;5037088;28;20052;-67
2022/08/08 02:20:17;;;;;;;0.20;0.20;;;15.90;99.90;;;;;;5039070;28;20059;-66
2022/08/08 02:22:53;;;;;;;0.10;0.10;;;16.00;99.90;;;;;;5040420;28;20109;-67
2022/08/08 02:25:31;;;;;;;0.20;0.20;;;15.90;99.90;;;;;;5041801;28;20050;-69
2022/08/08 02:28:02;;;;;;;0.35;0.35;;;15.90;99.90;;;;;;5044094;28;20052;-65
2022/08/08 02:30:52;;;;;;;0.32;0.32;;;15.90;99.90;;;;;;5034426;28;20041;-66
2022/08/08 02:33:18;;;;;;;0.15;0.15;;;15.90;99.90;;;;;;5042591;28;20055;-66
2022/08/08 02:36:05;;;;;;;0.03;0.03;;;15.90;99.90;;;;;;5042909;28;20045;-66
2022/08/08 02:38:58;;;;;;;0.43;0.43;;;15.90;99.90;;;;;;5039428;28;20125;-66
2022/08/08 02:41:43;;;;;;;0.10;0.10;;;15.80;99.90;;;;;;5035467;28;20400;-66
2022/08/08 02:44:24;;;;;;;0.00;0.00;;;15.80;99.90;;;;;;5042627;28;20124;-65
2022/08/08 02:46:56;;;;;;;0.40;0.40;;;15.70;99.90;;;;;;5035996;28;20504;-66
2022/08/08 02:49:38;;;;;;;0.95;0.95;;;15.70;99.90;;;;;;5042718;28;20051;-66
2022/08/08 02:52:30;;;;;;;0.10;0.10;;;15.80;99.90;;;;;;5032444;28;20666;-66
2022/08/08 02:55:33;;;;;;;0.32;0.32;;;15.80;99.90;;;;;;5022339;28;20435;-66
2022/08/08 02:57:58;;;;;;;0.05;0.05;;;15.90;99.90;;;;;;5030913;28;20033;-66
2022/08/08 03:00:49;;;;;;;0.17;0.17;;;15.90;99.90;;;;;;5044949;28;20051;-66
2022/08/08 03:03:31;;;;;;;0.43;0.43;;;15.90;99.90;;;;;;5036395;28;20055;-66
2022/08/08 03:06:21;;;;;;;0.63;0.63;;;15.90;99.90;;;;;;5040737;28;20515;-66
2022/08/08 03:09:18;;;;;;;0.10;0.10;;;16.00;99.90;;;;;;5042505;28;20432;-66
2022/08/08 03:12:19;;;;;;;0.20;0.20;;;16.00;99.90;;;;;;5035269;28;20076;-66
2022/08/08 03:15:06;;;;;;;0.10;0.10;;;15.90;99.90;;;;;;5043558;28;20052;-66
2022/08/08 03:18:06;;;;;;;0.32;0.32;;;15.90;99.90;;;;;;5034345;28;20148;-66
2022/08/08 03:20:44;;;;;;;0.20;0.17;;;15.90;99.90;;;;;;5033850;28;20187;-66
2022/08/08 03:23:10;;;;;;;0.03;0.03;;;16.00;99.90;;;;;;5040176;28;20080;-67
2022/08/08 03:25:37;;;;;;;0.73;0.73;;;16.00;99.90;;;;;;5047164;28;20081;-67
2022/08/08 03:28:17;;;;;;;0.68;0.68;;;16.00;99.90;;;;;;5042442;28;20053;-67
2022/08/08 03:30:44;;;;;;;0.25;0.25;;;16.00;99.90;;;;;;5031140;28;20108;-67
2022/08/08 03:33:18;;;;;;;1.50;0.60;;;15.90;99.90;;;;;;5040359;28;20540;-67
2022/08/08 03:35:50;;;;;;;0.22;0.22;;;16.10;99.90;;;;;;5031305;28;20045;-67
2022/08/08 03:38:19;;;;;;;0.08;0.08;;;16.10;99.90;;;;;;5037597;28;20045;-67
2022/08/08 03:40:52;;;;;;;0.00;0.00;;;16.10;99.90;;;;;;5032683;28;20156;-67
2022/08/08 03:43:18;;;;;;;0.10;0.10;;;16.20;99.90;;;;;;5043921;28;20045;-67
2022/08/08 03:45:44;;;;;;;0.00;0.00;;;16.10;99.90;;;;;;5044841;28;20095;-67
2022/08/08 03:48:10;;;;;;;0.10;0.10;;;16.10;99.90;;;;;;5035612;28;20095;-67
2022/08/08 03:50:44;;;;;;;0.00;0.00;;;16.10;99.90;;;;;;5037921;28;20111;-67
2022/08/08 03:53:12;;;;;;;0.10;0.10;;;16.10;99.90;;;;;;5037498;28;20485;-67
2022/08/08 03:55:40;;;;;;;0.20;0.20;;;16.10;99.90;;;;;;5038645;28;20045;-67
2022/08/08 03:58:06;;;;;;;0.10;0.10;;;16.00;99.90;;;;;;5048968;28;20485;-67
2022/08/08 04:00:32;;;;;;;0.00;0.00;;;15.90;99.90;;;;;;5034685;28;20440;-67
2022/08/08 04:03:00;;;;;;;0.28;0.28;;;15.90;99.90;;;;;;5039041;28;20091;-67
2022/08/08 04:05:28;;;;;;;0.25;0.22;;;15.90;99.90;;;;;;5051402;28;20099;-67
2022/08/08 04:07:54;;;;;;;0.10;0.10;;;15.90;99.90;;;;;;5040948;28;20120;-67
2022/08/08 04:10:20;;;;;;;0.20;0.20;;;15.90;99.90;;;;;;5060137;28;20131;-67
2022/08/08 04:12:46;;;;;;;0.00;0.00;;;15.90;99.90;;;;;;5049184;28;20476;-67
2022/08/08 04:15:11;;;;;;;0.22;0.22;;;15.80;99.90;;;;;;5037131;28;20040;-67
2022/08/08 04:17:37;;;;;;;0.10;0.10;;;15.90;99.90;;;;;;5046970;28;20485;-67
2022/08/08 04:20:04;;;;;;;0.00;0.00;;;15.90;99.90;;;;;;5042194;28;20037;-67
2022/08/08 04:22:29;;;;;;;0.10;0.10;;;15.90;99.90;;;;;;5049377;28;20405;-67
2022/08/08 04:24:55;;;;;;;0.10;0.10;;;15.90;99.90;;;;;;5050298;28;20041;-67
2022/08/08 04:27:22;;;;;;;0.00;0.00;;;15.90;99.90;;;;;;5049012;28;20754;-67
2022/08/08 04:29:48;;;;;;;0.20;0.20;;;15.90;99.90;;;;;;5039837;28;20124;-66
2022/08/08 04:32:13;;;;;;;0.10;0.10;;;16.00;99.90;;;;;;5043401;28;20151;-67
2022/08/08 04:34:40;;;;;;;0.20;0.20;;;16.00;99.90;;;;;;5042060;28;20556;-67
2022/08/08 04:37:06;;;;;;;0.13;0.13;;;16.00;99.90;;;;;;5044911;28;20064;-67
2022/08/08 04:39:32;;;;;;;0.00;0.00;;;16.10;99.90;;;;;;5050252;28;20071;-67
2022/08/08 04:41:57;;;;;;;0.05;0.05;;;16.00;99.90;;;;;;5040047;28;20037;-67
2022/08/08 04:44:23;;;;;;;0.10;0.10;;;16.10;99.90;;;;;;5048050;28;20488;-67
2022/08/08 04:46:49;;;;;;;0.00;0.00;;;16.10;99.90;;;;;;5033678;28;20041;-67
2022/08/08 04:49:14;;;;;;;0.32;0.32;;;16.20;99.90;;;;;;5046685;28;20127;-67
2022/08/08 04:51:40;;;;;;;0.10;0.10;;;16.20;99.90;;;;;;5048675;28;20047;-67
2022/08/08 04:54:05;;;;;;;0.05;0.05;;;16.20;99.90;;;;;;5035307;28;20043;-67
2022/08/08 04:56:31;;;;;;;0.73;0.73;;;16.20;99.90;;;;;;5038986;28;20049;-67
2022/08/08 04:58:57;;;;;;;0.10;0.10;;;16.30;99.90;;;;;;5042850;28;20056;-67
2022/08/08 05:01:23;;;;;;;0.10;0.10;;;16.40;99.90;;;;;;5039913;28;20143;-67
2022/08/08 05:03:49;;;;;;;0.00;0.00;;;16.40;99.90;;;;;;5047731;28;20623;-67
2022/08/08 05:06:14;;;;;;;0.45;0.45;;;16.40;99.90;;;;;;5041427;28;20114;-67
2022/08/08 05:08:44;;;;;;;0.10;0.10;;;16.50;99.90;;;;;;5048066;28;20044;-67
2022/08/08 05:11:12;;;;;;;0.13;0.13;;;16.50;99.90;;;;;;5035376;28;20041;-67
2022/08/08 05:13:42;;;;;;;0.28;0.28;;;16.40;99.90;;;;;;5039272;28;20045;-67
2022/08/08 05:16:08;;;;;;;0.10;0.10;;;16.40;99.90;;;;;;5045460;28;20041;-67
2022/08/08 05:18:38;;;;;;;0.05;0.05;;;16.40;99.90;;;;;;5033766;28;20668;-67
2022/08/08 05:21:04;;;;;;;0.28;0.28;;;16.40;99.90;;;;;;5034508;28;20045;-67
2022/08/08 05:23:31;;;;;;;0.43;0.43;;;16.40;99.90;;;;;;5044976;28;20138;-67
2022/08/08 05:25:57;;;;;;;0.10;0.10;;;16.50;99.90;;;;;;5047124;28;20060;-67
2022/08/08 05:28:22;;;;;;;0.10;0.10;;;16.50;99.90;;;;;;5048404;28;20045;-67
2022/08/08 05:30:48;;;;;;;0.10;0.10;;;16.50;99.90;;;;;;5038569;28;20048;-67
2022/08/08 05:33:14;;;;;;;0.28;0.17;;;16.60;99.90;;;;;;5044498;28;20040;-67
2022/08/08 05:35:42;;;;;;;0.00;0.00;;;16.60;99.90;;;;;;5037747;28;20053;-67
2022/08/08 05:38:12;;;;;;;0.20;0.20;;;16.60;99.90;;;;;;5044276;28;20813;-67
2022/08/08 05:40:47;;;;;;;0.05;0.05;;;16.60;99.90;;;;;;5047447;28;20284;-67
2022/08/08 05:43:19;;;;;;;0.10;0.10;;;16.70;99.90;;;;;;5044267;28;20140;-67
2022/08/08 05:45:46;;;;;;;0.10;0.10;;;16.70;99.90;;;;;;5035199;28;20037;-67
2022/08/08 05:48:12;;;;;;;0.13;0.13;;;16.80;99.90;;;;;;5048155;28;20041;-67
2022/08/08 05:50:38;;;;;;;0.35;0.35;;;16.80;99.90;;;;;;5040492;28;20075;-67
2022/08/08 05:53:04;;;;;;;0.00;0.00;;;16.80;99.90;;;;;;5037919;28;20064;-67
2022/08/08 05:55:33;;;;;;;0.10;0.10;;;16.90;99.90;;;;;;5035811;28;20495;-67
2022/08/08 05:58:02;;;;;;;0.40;0.40;;;16.90;99.90;;;;;;5044443;28;20749;-67
2022/08/08 06:00:31;;;;;;;0.08;0.08;;;17.00;99.90;;;;;;5031162;28;20052;-67
2022/08/08 06:03:10;;;;;;;0.00;0.00;;;17.00;99.90;;;;;;5029804;28;20057;-67
2022/08/08 06:05:45;;;;;;;0.10;0.10;;;17.10;99.90;;;;;;5046683;28;20084;-67
2022/08/08 06:08:14;;;;;;;0.10;0.10;;;17.10;99.90;;;;;;5037584;28;20091;-67
2022/08/08 06:10:41;;;;;;;0.10;0.10;;;17.20;99.90;;;;;;5040594;28;20059;-67
2022/08/08 06:13:07;;;;;;;0.20;0.20;;;17.30;99.90;;;;;;5045866;28;20033;-67
2022/08/08 06:15:36;;;;;;;0.60;0.47;;;17.40;99.90;;;;;;5047102;28;20505;-67
2022/08/08 06:18:03;;;;;;;0.05;0.05;;;17.40;99.90;;;;;;5030086;28;20087;-67
2022/08/08 06:20:29;;;;;;;0.15;0.15;;;17.40;99.90;;;;;;5043701;28;20044;-67
2022/08/08 06:22:54;;;;;;;2.13;0.90;;;17.50;99.90;;;;;;5044763;28;20807;-67
2022/08/08 06:25:20;;;;;;;0.00;0.00;;;17.60;99.90;;;;;;5032394;28;20053;-68
2022/08/08 06:27:52;;;;;;;0.10;0.10;;;17.60;99.90;;;;;;5045116;28;20090;-67
2022/08/08 06:30:21;;;;;;;0.00;0.00;;;17.70;99.90;;;;;;5031393;28;20451;-67
2022/08/08 06:32:56;;;;;;;0.00;0.00;;;17.80;99.90;;;;;;5044768;28;20055;-67
2022/08/08 06:35:23;;;;;;;1.25;0.40;;;17.90;99.90;;;;;;5037580;28;20052;-67
2022/08/08 06:37:55;;;;;;;0.00;0.00;;;17.90;99.90;;;;;;5044508;28;20053;-68
2022/08/08 06:40:24;;;;;;;0.00;0.00;;;18.00;99.90;;;;;;5042986;28;20043;-67
2022/08/08 06:43:02;;;;;;;0.10;0.10;;;18.00;99.90;;;;;;5037006;28;20057;-67
2022/08/08 06:45:32;;;;;;;0.10;0.10;;;18.10;99.90;;;;;;5041727;28;20045;-67
2022/08/08 06:47:59;;;;;;;0.20;0.20;;;18.20;99.90;;;;;;5047701;28;20052;-67
2022/08/08 06:50:25;;;;;;;0.00;0.00;;;18.20;99.90;;;;;;5030439;28;20061;-68
2022/08/08 06:52:50;;;;;;;0.00;0.00;;;18.30;99.90;;;;;;5038205;28;20044;-68
2022/08/08 06:55:17;;;;;;;0.00;0.00;;;18.40;99.90;;;;;;5031938;28;20040;-67
2022/08/08 06:57:43;;;;;;;0.00;0.00;;;18.40;99.90;;;;;;5044671;28;20045;-68
2022/08/08 07:00:09;;;;;;;0.00;0.00;;;18.40;99.90;;;;;;5044832;28;20047;-67
2022/08/08 07:02:41;;;;;;;0.03;0.03;;;18.50;99.90;;;;;;5038189;28;20064;-67
2022/08/08 07:05:08;;;;;;;0.00;0.00;;;18.50;99.90;;;;;;5039346;28;20484;-67
2022/08/08 07:07:46;;;;;;;0.10;0.10;;;18.60;99.90;;;;;;5047721;28;20052;-67
2022/08/08 07:10:15;;;;;;;0.00;0.00;;;18.50;99.90;;;;;;5036464;28;20084;-67
2022/08/08 07:12:42;;;;;;;0.20;0.20;;;18.60;99.90;;;;;;5043528;28;20467;-67
2022/08/08 07:15:11;;;;;;;0.08;0.08;;;18.60;99.90;;;;;;5047658;28;20048;-67
2022/08/08 07:17:50;;;;;;;0.85;0.20;;;18.60;99.90;;;;;;5038690;28;20425;-67
2022/08/08 07:20:18;;;;;;;0.00;0.00;;;18.60;99.90;;;;;;5040894;28;20048;-67
2022/08/08 07:23:16;;;;;;;0.05;0.05;;;18.50;99.90;;;;;;5047311;28;20512;-67
2022/08/08 07:25:44;;;;;;;0.00;0.00;;;18.60;99.90;;;;;;5026400;28;20135;-67
2022/08/08 07:28:14;;;;;;;0.10;0.10;;;18.60;99.90;;;;;;5035115;28;20048;-68
2022/08/08 07:30:42;;;;;;;0.00;0.00;;;18.60;99.90;;;;;;5043655;28;20250;-66
2022/08/08 07:33:10;;;;;;;0.17;0.17;;;18.60;99.90;;;;;;5043483;28;20072;-66
2022/08/08 07:35:37;;;;;;;0.00;0.00;;;18.60;99.90;;;;;;5051601;28;20106;-67
2022/08/08 07:38:03;;;;;;;0.00;0.00;;;18.70;99.90;;;;;;5050749;28;20045;-66
2022/08/08 07:40:30;;;;;;;0.00;0.00;;;18.60;99.90;;;;;;5038455;28;20413;-67
2022/08/08 07:42:55;;;;;;;0.00;0.00;;;18.70;99.90;;;;;;5042731;28;20041;-67
2022/08/08 07:45:21;;;;;;;1.33;1.00;;;18.70;99.90;;;;;;5040296;28;20443;-68
2022/08/08 07:47:47;;;;;;;0.00;0.00;;;18.80;99.90;;;;;;5047618;28;20096;-67
2022/08/08 07:50:13;;;;;;;0.00;0.00;;;18.90;99.90;;;;;;5051246;28;20504;-67
2022/08/08 07:52:43;;;;;;;4.28;0.73;;;19.00;99.90;;;;;;5035116;28;20409;-67
2022/08/08 07:55:19;;;;;;;0.00;0.00;;;19.00;99.90;;;;;;5045590;28;20095;-68
2022/08/08 07:58:11;;;;;;;0.00;0.00;;;19.10;99.90;;;;;;5041834;28;20107;-67
2022/08/08 08:00:42;;;;;;;0.00;0.00;;;19.10;99.90;;;;;;5039512;28;20063;-68
2022/08/08 08:03:12;;;;;;;0.00;0.00;;;19.10;99.90;;;;;;5036754;28;20050;-68
2022/08/08 08:05:43;;;;;;;0.08;0.08;;;19.20;99.90;;;;;;5036540;28;20442;-67
2022/08/08 08:08:16;;;;;;;0.13;0.13;;;19.20;99.90;;;;;;5043059;28;20119;-65
2022/08/08 08:10:48;;;;;;;;;;;19.30;99.90;;;;;;5043534;28;20055;-65
2022/08/08 08:13:32;;;;;;;0.28;0.25;;;19.30;99.90;;;;;;5044128;28;20020;-66
2022/08/08 08:16:01;;;;;;;0.00;0.00;;;19.30;99.90;;;;;;5050662;28;20860;-65
2022/08/08 08:18:34;;;;;;;0.10;0.10;;;19.30;99.90;;;;;;5041470;28;20392;-65
2022/08/08 08:21:01;;;;;;;0.00;0.00;;;19.30;99.90;;;;;;5036617;28;20045;-65
2022/08/08 08:23:27;;;;;;;0.32;0.32;;;19.30;99.90;;;;;;5041248;28;20048;-65
2022/08/08 08:25:52;;;;;;;0.05;0.05;;;19.30;99.90;;;;;;5051020;28;20057;-65
2022/08/08 08:28:20;;;;;;;0.43;0.43;;;19.30;99.90;;;;;;5044068;28;20044;-65
2022/08/08 08:30:45;;;;;;;0.10;0.10;;;19.30;99.90;;;;;;5038472;28;20052;-65
2022/08/08 08:33:11;;;;;;;0.00;0.00;;;19.30;99.90;;;;;;5030448;28;20491;-65
2022/08/08 08:35:37;;;;;;;0.40;0.40;;;19.40;99.90;;;;;;5034763;28;20041;-65
2022/08/08 08:38:02;;;;;;;0.00;0.00;;;19.40;99.90;;;;;;5040860;28;20560;-65
2022/08/08 08:40:30;;;;;;;0.08;0.08;;;19.40;99.90;;;;;;5042573;28;20049;-65
2022/08/08 08:42:57;;;;;;;5.50;0.30;;;19.50;99.90;;;;;;5042543;28;20045;-65
2022/08/08 08:45:23;;;;;;;0.00;0.00;;;19.50;99.90;;;;;;5041143;28;20033;-65
2022/08/08 08:47:52;;;;;;;0.08;0.08;;;19.60;99.90;;;;;;5040280;28;20049;-65
2022/08/08 08:50:18;;;;;;;0.00;0.00;;;19.60;99.90;;;;;;5034941;28;20042;-65
2022/08/08 08:52:45;;;;;;;0.00;0.00;;;19.60;99.90;;;;;;5041147;28;20044;-65
2022/08/08 08:55:14;;;;;;;0.57;0.57;;;19.60;99.90;;;;;;5037580;28;20522;-65
2022/08/08 08:57:42;;;;;;;0.10;0.10;;;19.50;99.90;;;;;;5052191;28;20471;-65
2022/08/08 09:00:09;;;;;;;0.00;0.00;;;19.60;99.90;;;;;;5039004;28;20511;-65
2022/08/08 09:02:37;;;;;;;0.00;0.00;;;19.50;99.90;;;;;;5047476;28;20049;-65
2022/08/08 09:05:06;;;;;;;0.10;0.10;;;19.50;99.90;;;;;;5039796;28;20045;-65
2022/08/08 09:07:34;;;;;;;0.22;0.15;;;19.50;99.90;;;;;;5046509;28;20032;-65
2022/08/08 09:10:01;;;;;;;0.00;0.00;;;19.50;99.90;;;;;;5049127;28;20052;-65
2022/08/08 09:12:27;;;;;;;0.00;0.00;;;19.50;99.90;;;;;;5037008;28;20039;-65
2022/08/08 09:14:57;;;;;;;0.10;0.10;;;19.50;99.90;;;;;;5044251;28;20040;-65
2022/08/08 09:17:23;;;;;;;0.08;0.08;;;19.50;99.90;;;;;;5034115;28;20056;-65
2022/08/08 09:19:59;;;;;;;0.00;0.00;;;19.50;99.90;;;;;;5042140;28;20053;-65
2022/08/08 09:22:25;;;;;;;0.05;0.05;;;19.50;99.90;;;;;;5040076;28;20041;-65
2022/08/08 09:24:52;;;;;;;0.30;0.30;;;19.50;99.90;;;;;;5050148;28;20131;-65
2022/08/08 09:27:19;;;;;;;0.60;0.13;;;19.50;99.90;;;;;;5037173;28;20048;-65
2022/08/08 09:30:02;;;;;;;0.10;0.10;;;19.60;99.90;;;;;;5034350;28;20255;-65
2022/08/08 09:32:41;;;;;;;0.20;0.20;;;19.60;99.90;;;;;;5036157;28;20046;-65
2022/08/08 09:35:14;;;;;;;0.00;0.00;;;19.60;99.90;;;;;;5043773;28;20033;-65
2022/08/08 09:37:45;;;;;;;0.00;0.00;;;19.60;99.90;;;;;;5043006;28;20439;-67
2022/08/08 09:40:13;;;;;;;0.00;0.00;;;19.60;99.90;;;;;;5041403;28;20090;-68
2022/08/08 09:42:44;;;;;;;0.00;0.00;;;19.70;99.90;;;;;;5046953;28;20072;-67
2022/08/08 09:45:25;;;;;;;0.08;0.08;;;19.80;99.90;;;;;;5031171;28;20034;-68
2022/08/08 09:47:51;;;;;;;0.00;0.00;;;19.80;99.90;;;;;;5032716;28;20052;-68
2022/08/08 09:50:20;;;;;;;0.00;0.00;;;19.90;99.90;;;;;;5044430;28;20268;-68
2022/08/08 09:52:49;;;;;;;0.00;0.00;;;19.90;99.90;;;;;;5037005;28;20049;-68
2022/08/08 09:55:15;;;;;;;0.10;0.10;;;20.00;99.90;;;;;;5034748;28;20045;-68
2022/08/08 09:57:45;;;;;;;0.00;0.00;;;20.00;99.90;;;;;;5045721;28;20049;-68
2022/08/08 10:00:13;;;;;;;0.10;0.10;;;20.10;99.90;;;;;;5030137;28;20045;-68
2022/08/08 10:02:43;;;;;;;0.00;0.00;;;20.20;99.90;;;;;;5028944;28;20675;-68
2022/08/08 10:05:12;;;;;;;1.95;1.48;;;20.30;99.90;;;;;;5028400;28;20079;-69
2022/08/08 10:07:50;;;;;;;0.10;0.10;;;20.40;99.90;;;;;;5040478;28;20049;-67
2022/08/08 10:10:29;;;;;;;0.00;0.00;;;20.50;99.90;;;;;;5032585;28;20040;-68
2022/08/08 10:12:55;;;;;;;0.00;0.00;;;20.50;99.90;;;;;;5036946;28;20037;-68
2022/08/08 10:15:22;;;;;;;0.10;0.10;;;20.40;99.90;;;;;;5034876;28;20119;-68
2022/08/08 10:17:50;;;;;;;0.00;0.00;;;20.50;99.90;;;;;;5028719;28;20647;-68
2022/08/08 10:20:16;;;;;;;0.10;0.10;;;20.50;99.90;;;;;;5039812;28;20110;-68
2022/08/08 10:22:59;;;;;;;0.10;0.10;;;20.60;99.90;;;;;;5031320;28;20041;-68
2022/08/08 10:25:25;;;;;;;0.05;0.05;;;20.60;99.90;;;;;;5028603;28;20045;-68
2022/08/08 10:27:52;;;;;;;0.35;0.35;;;20.70;99.90;;;;;;5027152;28;20073;-68
2022/08/08 10:30:19;;;;;;;1.27;0.85;;;20.80;99.90;;;;;;5029648;28;20307;-68
2022/08/08 10:32:55;;;;;;;0.00;0.00;;;20.70;99.90;;;;;;5041897;28;20045;-68
2022/08/08 10:35:25;;;;;;;0.00;0.00;;;20.80;99.90;;;;;;5044119;28;20053;-68
2022/08/08 10:37:59;;;;;;;0.00;0.00;;;20.80;99.90;;;;;;5048604;28;20045;-69
2022/08/08 10:40:27;;;;;;;1.10;1.08;;;20.90;99.90;;;;;;5041394;28;20045;-69
2022/08/08 10:42:56;;;;;;;0.10;0.10;;;21.00;99.90;;;;;;5038471;28;20115;-69
2022/08/08 10:45:22;;;;;;;0.20;0.20;;;21.10;99.90;;;;;;5041532;28;20041;-69
2022/08/08 10:47:56;;;;;;;0.00;0.00;;;21.10;99.90;;;;;;5027753;28;20443;-69
2022/08/08 10:50:33;;;;;;;0.10;0.10;;;21.10;99.90;;;;;;5028130;28;20485;-68
2022/08/08 10:53:02;;;;;;;0.20;0.20;;;21.20;99.90;;;;;;5041915;28;20796;-69
2022/08/08 10:55:27;;;;;;;0.10;0.10;;;21.30;99.90;;;;;;5030247;28;20052;-68
2022/08/08 10:57:53;;;;;;;0.00;0.00;;;21.50;99.90;;;;;;5048636;28;20048;-69
2022/08/08 11:00:26;;;;;;;0.10;0.10;;;21.60;99.90;;;;;;5043341;28;20041;-68
2022/08/08 11:02:53;;;;;;;0.00;0.00;;;21.70;99.90;;;;;;5027404;28;20049;-69
2022/08/08 11:05:19;;;;;;;0.00;0.00;;;21.80;99.90;;;;;;5043162;28;20091;-68
2022/08/08 11:07:50;;;;;;;0.13;0.13;;;21.80;99.90;;;;;;5048481;28;20420;-69
2022/08/08 11:10:20;;;;;;;0.10;0.10;;;21.80;99.90;;;;;;5040695;28;20049;-68
2022/08/08 11:12:47;;;;;;;0.00;0.00;;;21.90;99.90;;;;;;5028599;28;20061;-69
2022/08/08 11:15:18;;;;;;;0.00;0.00;;;22.10;99.90;;;;;;5026350;28;20489;-69
2022/08/08 11:17:45;;;;;;;0.10;0.10;;;22.20;99.90;;;;;;5027770;28;20052;-69
2022/08/08 11:20:17;;;;;;;0.00;0.00;;;22.20;99.90;;;;;;5037384;28;20056;-68
2022/08/08 11:22:45;;;;;;;0.00;0.00;;;22.10;99.90;;;;;;5028122;28;20033;-69
2022/08/08 11:25:10;;;;;;;0.32;0.20;;;22.00;99.90;;;;;;5026453;28;20045;-68
2022/08/08 11:27:37;;;;;;;0.00;0.00;;;22.00;99.90;;;;;;5026605;28;20480;-68
2022/08/08 11:30:06;;;;;;;0.00;0.00;;;22.00;99.90;;;;;;5029004;28;20049;-69
2022/08/08 11:32:39;;;;;;;0.10;0.10;;;22.00;99.90;;;;;;5047589;28;20518;-69
2022/08/08 11:35:14;;;;;;;0.00;0.00;;;22.00;99.90;;;;;;5036283;28;20405;-69
2022/08/08 11:37:41;;;;;;;0.00;0.00;;;22.00;99.90;;;;;;5027214;28;20191;-69
2022/08/08 11:40:09;;;;;;;0.10;0.10;;;21.90;99.90;;;;;;5027378;28;20056;-68
2022/08/08 11:42:35;;;;;;;0.00;0.00;;;21.90;99.90;;;;;;5039693;28;20041;-69
2022/08/08 11:45:01;;;;;;;0.00;0.00;;;21.80;99.90;;;;;;5039185;28;20045;-68
2022/08/08 11:47:27;;;;;;;0.00;0.00;;;21.90;99.90;;;;;;5030776;28;20496;-68
2022/08/08 11:49:57;;;;;;;0.00;0.00;;;22.00;99.90;;;;;;5043653;28;20116;-68
2022/08/08 11:52:24;;;;;;;0.00;0.00;;;22.00;99.90;;;;;;5047174;28;20057;-69
2022/08/08 11:54:50;;;;;;;0.00;0.00;;;22.10;99.90;;;;;;5047053;28;20056;-69
2022/08/08 11:57:16;;;;;;;0.00;0.00;;;22.00;99.90;;;;;;5039706;28;20119;-69
2022/08/08 11:59:55;;;;;;;0.00;0.00;;;22.00;99.90;;;;;;5026255;28;20081;-68
2022/08/08 12:02:22;;;;;;;0.03;0.03;;;22.00;99.90;;;;;;5026935;28;20669;-69
2022/08/08 12:04:50;;;;;;;0.00;0.00;;;22.00;99.90;;;;;;5033100;28;20056;-69
2022/08/08 12:07:17;;;;;;;0.00;0.00;;;22.70;99.90;;;;;;5027669;28;20064;-69
2022/08/08 12:09:42;;;;;;;0.00;0.00;;;22.90;99.90;;;;;;5028368;28;20052;-69
2022/08/08 12:12:08;;;;;;;0.00;0.00;;;22.90;99.90;;;;;;5026314;28;20047;-69
2022/08/08 12:14:33;;;;;;;0.25;0.22;;;22.70;99.90;;;;;;5025851;28;20095;-69
2022/08/08 12:16:59;;;;;;;0.00;0.00;;;22.60;99.90;;;;;;5030626;28;20046;-68
2022/08/08 12:19:25;;;;;;;1.55;0.25;;;22.40;99.90;;;;;;5046863;28;20123;-68
2022/08/08 12:21:50;;;;;;;0.00;0.00;;;22.20;99.90;;;;;;5051199;28;20052;-69
2022/08/08 12:24:18;;;;;;;0.00;0.00;;;22.10;99.90;;;;;;5050962;28;20041;-68
2022/08/08 12:26:45;;;;;;;0.00;0.00;;;22.10;99.90;;;;;;5035909;28;20042;-68
2022/08/08 12:29:30;;;;;;;0.00;0.00;;;22.00;99.90;;;;;;5032700;28;20041;-69
2022/08/08 12:32:01;;;;;;;0.00;0.00;;;22.10;99.90;;;;;;5049304;28;20044;-68
2022/08/08 12:34:50;;;;;;;0.10;0.10;;;22.00;99.90;;;;;;5038218;28;20674;-68
2022/08/08 12:37:21;;;;;;;0.10;0.10;;;22.00;99.90;;;;;;5037989;28;20057;-68
2022/08/08 12:39:47;;;;;;;0.00;0.00;;;22.00;99.90;;;;;;5041755;28;20056;-69
2022/08/08 12:42:13;;;;;;;0.00;0.00;;;21.90;99.90;;;;;;5039167;28;20393;-69
2022/08/08 12:44:41;;;;;;;0.00;0.00;;;21.90;99.90;;;;;;5049956;28;20060;-69
2022/08/08 12:47:07;;;;;;;0.10;0.10;;;21.70;99.90;;;;;;5039788;28;20852;-69
2022/08/08 12:49:35;;;;;;;0.00;0.00;;;21.70;99.90;;;;;;5037950;28;21088;-69
2022/08/08 12:52:02;;;;;;;0.00;0.00;;;21.70;99.90;;;;;;5041431;28;20045;-69
2022/08/08 12:54:36;;;;;;;0.00;0.00;;;21.70;99.90;;;;;;5054057;28;20079;-68
2022/08/08 12:57:19;;;;;;;0.00;0.00;;;21.70;99.90;;;;;;5035841;28;20044;-68
2022/08/08 12:59:53;;;;;;;0.00;0.00;;;21.80;99.90;;;;;;5044690;28;20045;-69
2022/08/08 13:02:24;;;;;;;0.00;0.00;;;21.80;99.90;;;;;;5041024;28;20048;-68
2022/08/08 13:04:51;;;;;;;0.00;0.00;;;21.80;99.90;;;;;;5037557;28;20057;-69
2022/08/08 13:07:17;;;;;;;0.05;0.05;;;21.80;99.90;;;;;;5047480;28;20092;-69
2022/08/08 13:09:52;;;;;;;0.00;0.00;;;21.90;99.90;;;;;;5046018;28;20053;-69
2022/08/08 13:12:26;;;;;;;0.00;0.00;;;21.90;99.90;;;;;;5040623;28;20049;-68
2022/08/08 13:14:54;;;;;;;0.00;0.00;;;21.80;99.90;;;;;;5032353;28;20046;-68
2022/08/08 13:17:22;;;;;;;0.00;0.00;;;21.70;99.90;;;;;;5046379;28;20041;-69